Time;durP1;ratioP1;P1;durP2;ratioP2;P2;SDS_P1;SDS_P2;PMS_P1;PMS_P2;Temp;Humidity;BMP_temperature;BMP_pressure;BME280_temperature;BME280_humidity;BME280_pressure;Samples;Min_cycle;Max_cycle;Signal;HPM_P1;HPM_P2
2023/06/21 00:01:04;;;;;;;9.82;8.77;;;;;;;;;;6370227;22;20056;-61
2023/06/21 00:03:32;;;;;;;10.70;9.60;;;;;;;;;;6370265;22;20014;-61
2023/06/21 00:05:59;;;;;;;13.40;9.60;;;;;;;;;;6370147;22;20388;-62
2023/06/21 00:08:27;;;;;;;10.02;8.98;;;;;;;;;;6369656;22;20011;-61
2023/06/21 00:10:54;;;;;;;11.10;9.30;;;;;;;;;;6368799;22;20071;-62
2023/06/21 00:13:22;;;;;;;10.05;8.95;;;;;;;;;;6370054;22;20448;-61
2023/06/21 00:15:50;;;;;;;10.90;9.15;;;;;;;;;;6370945;22;20018;-61
2023/06/21 00:18:18;;;;;;;11.20;9.75;;;;;;;;;;6370517;22;20452;-61
2023/06/21 00:20:46;;;;;;;10.95;9.18;;;;;;;;;;6342488;22;20362;-61
2023/06/21 00:23:14;;;;;;;12.13;9.18;;;;;;;;;;6370198;22;20368;-61
2023/06/21 00:25:42;;;;;;;12.82;9.35;;;;;;;;;;6370278;22;20370;-62
2023/06/21 00:28:09;;;;;;;13.35;9.52;;;;;;;;;;6341454;22;20018;-61
2023/06/21 00:30:37;;;;;;;10.70;9.15;;;;;;;;;;6341716;22;20026;-61
2023/06/21 00:33:04;;;;;;;11.73;9.32;;;;;;;;;;6370080;22;20021;-61
2023/06/21 00:35:33;;;;;;;12.77;9.23;;;;;;;;;;6342659;22;20068;-61
2023/06/21 00:38:03;;;;;;;11.88;9.68;;;;;;;;;;6342280;22;20014;-61
2023/06/21 00:40:30;;;;;;;10.88;9.40;;;;;;;;;;6372233;22;20014;-61
2023/06/21 00:43:03;;;;;;;11.85;10.40;;;;;;;;;;6344039;22;20044;-61
2023/06/21 00:45:39;;;;;;;14.88;12.25;;;;;;;;;;6344338;22;20022;-61
2023/06/21 00:48:07;;;;;;;17.10;13.27;;;;;;;;;;6343706;22;20029;-61
2023/06/21 00:50:35;;;;;;;17.02;11.68;;;;;;;;;;6343846;22;20026;-61
2023/06/21 00:53:02;;;;;;;14.90;11.23;;;;;;;;;;6343780;22;20014;-61
2023/06/21 00:55:30;;;;;;;17.15;11.82;;;;;;;;;;6371683;22;20018;-61
2023/06/21 00:57:58;;;;;;;17.30;12.35;;;;;;;;;;6344321;22;20011;-61
2023/06/21 01:00:26;;;;;;;16.73;11.45;;;;;;;;;;6372096;22;20018;-61
2023/06/21 01:02:58;;;;;;;14.73;11.73;;;;;;;;;;6344347;22;20064;-61
2023/06/21 01:05:26;;;;;;;14.73;11.80;;;;;;;;;;6344217;22;20083;-61
2023/06/21 01:08:02;;;;;;;13.02;11.02;;;;;;;;;;6372459;22;20037;-61
2023/06/21 01:10:59;;;;;;;15.10;11.88;;;;;;;;;;6318750;22;20029;-61
2023/06/21 01:13:26;;;;;;;18.02;12.68;;;;;;;;;;6338452;22;20031;-61
2023/06/21 01:16:05;;;;;;;15.18;11.63;;;;;;;;;;6344148;22;20097;-61
2023/06/21 01:18:34;;;;;;;13.23;10.85;;;;;;;;;;6343660;22;20018;-61
2023/06/21 01:21:06;;;;;;;15.30;11.52;;;;;;;;;;6344357;22;20436;-61
2023/06/21 01:23:34;;;;;;;16.77;11.52;;;;;;;;;;6318017;22;20063;-61
2023/06/21 01:26:04;;;;;;;12.98;10.57;;;;;;;;;;6343499;22;20091;-61
2023/06/21 01:28:47;;;;;;;17.55;10.57;;;;;;;;;;6372226;22;20407;-60
2023/06/21 01:31:16;;;;;;;16.90;11.63;;;;;;;;;;6317728;22;20014;-61
2023/06/21 01:33:45;;;;;;;13.60;11.38;;;;;;;;;;6343891;22;20432;-61
2023/06/21 01:36:12;;;;;;;15.85;11.25;;;;;;;;;;6318671;22;20101;-61
2023/06/21 01:38:40;;;;;;;14.38;11.50;;;;;;;;;;6343231;22;20085;-61
2023/06/21 01:41:12;;;;;;;15.63;11.23;;;;;;;;;;6343378;22;20340;-61
2023/06/21 01:43:40;;;;;;;16.05;11.52;;;;;;;;;;6371966;22;20014;-61
2023/06/21 01:46:08;;;;;;;15.38;11.23;;;;;;;;;;6343610;22;20056;-61
2023/06/21 01:48:37;;;;;;;18.00;11.10;;;;;;;;;;6343639;22;20015;-61
2023/06/21 01:51:05;;;;;;;16.85;11.55;;;;;;;;;;6343614;22;20022;-61
2023/06/21 01:53:36;;;;;;;16.98;12.13;;;;;;;;;;6343786;22;20382;-61
2023/06/21 01:56:06;;;;;;;18.10;11.70;;;;;;;;;;6343983;22;20105;-62
2023/06/21 01:58:34;;;;;;;17.17;12.00;;;;;;;;;;6371836;22;20404;-61
2023/06/21 02:01:05;;;;;;;16.80;11.63;;;;;;;;;;6344490;22;20018;-61
2023/06/21 02:03:33;;;;;;;18.20;12.10;;;;;;;;;;6371757;22;20347;-63
2023/06/21 02:06:05;;;;;;;18.55;12.68;;;;;;;;;;6343349;22;20014;-62
2023/06/21 02:08:33;;;;;;;15.73;12.18;;;;;;;;;;6344018;22;20378;-62
2023/06/21 02:11:01;;;;;;;17.38;13.05;;;;;;;;;;6343608;22;20064;-62
2023/06/21 02:13:29;;;;;;;17.88;13.18;;;;;;;;;;6343283;22;20014;-62
2023/06/21 02:15:57;;;;;;;17.13;12.55;;;;;;;;;;6371341;22;20076;-62
2023/06/21 02:18:25;;;;;;;20.45;12.57;;;;;;;;;;6343284;22;20014;-61
2023/06/21 02:20:53;;;;;;;17.10;13.25;;;;;;;;;;6344448;22;20022;-62
2023/06/21 02:23:21;;;;;;;20.73;13.82;;;;;;;;;;6371279;22;20010;-61
2023/06/21 02:25:48;;;;;;;24.17;13.80;;;;;;;;;;6343037;22;20023;-61
2023/06/21 02:28:20;;;;;;;18.98;13.20;;;;;;;;;;6343100;22;20368;-61
2023/06/21 02:30:47;;;;;;;18.67;13.32;;;;;;;;;;6370720;22;20050;-61
2023/06/21 02:33:15;;;;;;;21.77;13.77;;;;;;;;;;6317734;22;20014;-61
2023/06/21 02:35:42;;;;;;;21.27;15.02;;;;;;;;;;6343558;22;20022;-61
2023/06/21 02:38:10;;;;;;;23.00;15.15;;;;;;;;;;6343682;22;20015;-61
2023/06/21 02:40:37;;;;;;;21.13;14.85;;;;;;;;;;6343277;22;20083;-61
2023/06/21 02:43:05;;;;;;;20.20;13.02;;;;;;;;;;6371041;22;20029;-61
2023/06/21 02:45:32;;;;;;;20.88;13.93;;;;;;;;;;6343718;22;20023;-61
2023/06/21 02:48:00;;;;;;;24.48;14.30;;;;;;;;;;6371521;22;20010;-61
2023/06/21 02:50:27;;;;;;;22.15;13.68;;;;;;;;;;6342819;22;20022;-61
2023/06/21 02:52:55;;;;;;;24.67;13.85;;;;;;;;;;6372069;22;20381;-61
2023/06/21 02:55:23;;;;;;;18.60;13.85;;;;;;;;;;6342921;22;20014;-61
2023/06/21 02:57:50;;;;;;;25.00;13.98;;;;;;;;;;6343107;22;20092;-61
2023/06/21 03:00:28;;;;;;;26.83;14.38;;;;;;;;;;6343643;22;20022;-61
2023/06/21 03:02:59;;;;;;;19.70;13.88;;;;;;;;;;6371300;22;20018;-62
2023/06/21 03:05:29;;;;;;;21.65;14.40;;;;;;;;;;6343052;22;20428;-61
2023/06/21 03:07:57;;;;;;;24.63;14.02;;;;;;;;;;6343063;22;20023;-61
2023/06/21 03:10:24;;;;;;;26.10;13.90;;;;;;;;;;6343631;22;20024;-61
2023/06/21 03:12:52;;;;;;;23.13;14.15;;;;;;;;;;6370913;22;20011;-61
2023/06/21 03:15:22;;;;;;;22.35;13.50;;;;;;;;;;6317557;22;20018;-63
2023/06/21 03:17:50;;;;;;;18.55;13.90;;;;;;;;;;6342954;22;20040;-61
2023/06/21 03:20:18;;;;;;;20.67;14.70;;;;;;;;;;6343262;22;20019;-61
2023/06/21 03:22:47;;;;;;;19.35;13.07;;;;;;;;;;6343331;22;20033;-61
2023/06/21 03:25:15;;;;;;;22.60;16.08;;;;;;;;;;6343336;22;20038;-62
2023/06/21 03:27:45;;;;;;;28.33;17.48;;;;;;;;;;6343145;22;20037;-62
2023/06/21 03:30:13;;;;;;;24.52;17.95;;;;;;;;;;6343189;22;20021;-62
2023/06/21 03:32:47;;;;;;;28.05;18.40;;;;;;;;;;6343148;22;20105;-62
2023/06/21 03:35:18;;;;;;;22.33;17.80;;;;;;;;;;6343343;22;20014;-62
2023/06/21 03:37:47;;;;;;;21.65;17.10;;;;;;;;;;6370102;22;20425;-62
2023/06/21 03:40:20;;;;;;;24.27;17.55;;;;;;;;;;6341974;22;20019;-62
2023/06/21 03:42:48;;;;;;;26.35;17.13;;;;;;;;;;6341999;22;20022;-62
2023/06/21 03:45:15;;;;;;;20.83;15.77;;;;;;;;;;6341241;22;20088;-62
2023/06/21 03:47:49;;;;;;;25.07;17.10;;;;;;;;;;6341910;22;20022;-62
2023/06/21 03:50:17;;;;;;;24.40;16.00;;;;;;;;;;6341710;22;20332;-62
2023/06/21 03:52:46;;;;;;;23.52;15.55;;;;;;;;;;6341827;22;20026;-63
2023/06/21 03:55:16;;;;;;;25.98;16.15;;;;;;;;;;6341808;22;20351;-63
2023/06/21 03:57:44;;;;;;;21.83;15.93;;;;;;;;;;6342399;22;20022;-63
2023/06/21 04:00:12;;;;;;;29.20;17.25;;;;;;;;;;6317365;22;20015;-63
2023/06/21 04:02:43;;;;;;;23.10;15.32;;;;;;;;;;6371238;22;20022;-63
2023/06/21 04:05:11;;;;;;;21.33;15.02;;;;;;;;;;6342936;22;20034;-63
2023/06/21 04:07:39;;;;;;;22.30;15.15;;;;;;;;;;6342469;22;20050;-63
2023/06/21 04:10:09;;;;;;;24.80;15.27;;;;;;;;;;6342238;22;20050;-63
2023/06/21 04:12:37;;;;;;;22.77;15.02;;;;;;;;;;6343141;22;20022;-63
2023/06/21 04:15:05;;;;;;;21.55;14.80;;;;;;;;;;6344792;22;20026;-63
2023/06/21 04:17:36;;;;;;;23.60;14.68;;;;;;;;;;6345018;22;20423;-63
2023/06/21 04:20:10;;;;;;;25.38;15.05;;;;;;;;;;6345105;22;20371;-63
2023/06/21 04:22:38;;;;;;;;;;;;;;;;;;6345781;22;20026;-63
2023/06/21 04:25:06;;;;;;;20.33;14.15;;;;;;;;;;6344892;22;19915;-63
2023/06/21 04:27:33;;;;;;;24.08;15.25;;;;;;;;;;6344979;22;20005;-63
2023/06/21 04:30:01;;;;;;;27.02;14.25;;;;;;;;;;6372688;22;20025;-63
2023/06/21 04:32:32;;;;;;;26.65;14.18;;;;;;;;;;6327117;22;20018;-63
2023/06/21 04:35:00;;;;;;;21.40;14.05;;;;;;;;;;6366321;22;20101;-63
2023/06/21 04:37:28;;;;;;;25.40;15.05;;;;;;;;;;6372209;22;20029;-63
2023/06/21 04:39:56;;;;;;;24.35;14.32;;;;;;;;;;6344868;22;20018;-63
2023/06/21 04:42:43;;;;;;;26.25;14.63;;;;;;;;;;6372324;22;20015;-63
2023/06/21 04:45:14;;;;;;;26.30;15.02;;;;;;;;;;6372603;22;20022;-63
2023/06/21 04:47:48;;;;;;;24.65;14.07;;;;;;;;;;6373451;22;20080;-63
2023/06/21 04:50:16;;;;;;;20.70;13.90;;;;;;;;;;6372389;22;20042;-63
2023/06/21 04:52:47;;;;;;;17.98;13.80;;;;;;;;;;6372467;22;20035;-61
2023/06/21 04:55:18;;;;;;;23.88;13.00;;;;;;;;;;6372713;22;20021;-62
2023/06/21 04:57:49;;;;;;;16.60;11.93;;;;;;;;;;6372792;22;20026;-61
2023/06/21 05:00:19;;;;;;;16.92;11.23;;;;;;;;;;6372564;22;20010;-61
2023/06/21 05:02:47;;;;;;;17.00;10.57;;;;;;;;;;6371988;22;20040;-62
2023/06/21 05:05:15;;;;;;;15.25;8.30;;;;;;;;;;6372315;22;20022;-62
2023/06/21 05:07:43;;;;;;;14.55;8.45;;;;;;;;;;6371731;22;20014;-63
2023/06/21 05:10:11;;;;;;;14.40;8.45;;;;;;;;;;6371404;22;20085;-62
2023/06/21 05:12:38;;;;;;;11.55;8.15;;;;;;;;;;6371759;22;20052;-62
2023/06/21 05:15:06;;;;;;;13.48;8.75;;;;;;;;;;6372177;22;20089;-63
2023/06/21 05:17:34;;;;;;;14.23;8.63;;;;;;;;;;6372050;22;20036;-62
2023/06/21 05:20:04;;;;;;;14.32;8.10;;;;;;;;;;6372267;22;20090;-62
2023/06/21 05:22:32;;;;;;;13.98;8.45;;;;;;;;;;6371854;22;20034;-62
2023/06/21 05:25:03;;;;;;;9.63;7.85;;;;;;;;;;6371897;22;20015;-61
2023/06/21 05:27:31;;;;;;;13.00;8.13;;;;;;;;;;6344111;22;20468;-63
2023/06/21 05:29:58;;;;;;;8.98;7.88;;;;;;;;;;6371775;22;20083;-61
2023/06/21 05:32:26;;;;;;;8.85;7.93;;;;;;;;;;6370909;22;20085;-61
2023/06/21 05:34:54;;;;;;;11.82;8.43;;;;;;;;;;6371060;22;20017;-61
2023/06/21 05:37:22;;;;;;;9.80;8.43;;;;;;;;;;6372248;22;20017;-61
2023/06/21 05:39:51;;;;;;;11.32;7.97;;;;;;;;;;6371799;22;20018;-61
2023/06/21 05:42:18;;;;;;;15.55;9.10;;;;;;;;;;6371982;22;20018;-61
2023/06/21 05:44:46;;;;;;;16.42;9.88;;;;;;;;;;6372871;22;20028;-61
2023/06/21 05:47:14;;;;;;;14.20;9.70;;;;;;;;;;6343927;22;20025;-62
2023/06/21 05:49:41;;;;;;;11.93;9.50;;;;;;;;;;6372045;22;20026;-62
2023/06/21 05:52:09;;;;;;;14.48;9.82;;;;;;;;;;6372207;22;20018;-61
2023/06/21 05:54:41;;;;;;;15.82;10.23;;;;;;;;;;6344231;22;20064;-61
2023/06/21 05:57:09;;;;;;;16.90;10.68;;;;;;;;;;6370930;22;20382;-62
2023/06/21 05:59:36;;;;;;;11.88;9.48;;;;;;;;;;6370361;22;20006;-62
2023/06/21 06:02:05;;;;;;;12.15;9.13;;;;;;;;;;6370436;22;20010;-62
2023/06/21 06:04:33;;;;;;;12.38;9.75;;;;;;;;;;6370534;22;20041;-62
2023/06/21 06:07:01;;;;;;;11.18;8.88;;;;;;;;;;6370523;22;20021;-62
2023/06/21 06:09:28;;;;;;;24.75;10.27;;;;;;;;;;6357986;22;20022;-62
2023/06/21 06:11:56;;;;;;;14.32;9.00;;;;;;;;;;6370161;22;20014;-62
2023/06/21 06:14:24;;;;;;;14.82;9.18;;;;;;;;;;6370631;22;20093;-62
2023/06/21 06:16:52;;;;;;;11.35;8.48;;;;;;;;;;6370360;22;20044;-62
2023/06/21 06:19:21;;;;;;;10.38;9.13;;;;;;;;;;6370576;22;20093;-62
2023/06/21 06:21:48;;;;;;;11.13;8.90;;;;;;;;;;6370574;22;20022;-62
2023/06/21 06:24:16;;;;;;;12.20;8.55;;;;;;;;;;6370292;22;20015;-62
2023/06/21 06:26:44;;;;;;;10.45;8.63;;;;;;;;;;6370337;22;20018;-62
2023/06/21 06:29:11;;;;;;;11.30;8.02;;;;;;;;;;6342614;22;20038;-62
2023/06/21 06:31:39;;;;;;;14.73;8.60;;;;;;;;;;6370497;22;20042;-62
2023/06/21 06:34:07;;;;;;;11.85;8.40;;;;;;;;;;6370265;22;20068;-62
2023/06/21 06:36:34;;;;;;;9.32;8.30;;;;;;;;;;6369979;22;20363;-62
2023/06/21 06:39:02;;;;;;;9.85;7.80;;;;;;;;;;6370203;22;20010;-62
2023/06/21 06:41:30;;;;;;;12.25;7.85;;;;;;;;;;6370633;22;20025;-62
2023/06/21 06:44:04;;;;;;;10.48;8.05;;;;;;;;;;6342074;22;20029;-62
2023/06/21 06:46:31;;;;;;;12.63;7.45;;;;;;;;;;6370107;22;20505;-62
2023/06/21 06:48:59;;;;;;;9.10;7.47;;;;;;;;;;6369989;22;20019;-62
2023/06/21 06:51:26;;;;;;;10.07;7.32;;;;;;;;;;6370263;22;20089;-62
2023/06/21 06:53:54;;;;;;;8.65;7.30;;;;;;;;;;6370018;22;20018;-63
2023/06/21 06:56:21;;;;;;;9.52;6.78;;;;;;;;;;6369935;22;20440;-63
2023/06/21 06:58:49;;;;;;;11.02;7.30;;;;;;;;;;6342434;22;20085;-63
2023/06/21 07:01:17;;;;;;;12.00;7.75;;;;;;;;;;6369791;22;20021;-63
2023/06/21 07:03:44;;;;;;;11.85;7.00;;;;;;;;;;6369769;22;20010;-63
2023/06/21 07:06:12;;;;;;;8.75;6.40;;;;;;;;;;6369806;22;20018;-63
2023/06/21 07:08:44;;;;;;;8.88;6.13;;;;;;;;;;6369779;22;20359;-63
2023/06/21 07:11:12;;;;;;;8.20;6.00;;;;;;;;;;6343853;22;20014;-63
2023/06/21 07:13:40;;;;;;;8.40;5.53;;;;;;;;;;6370237;22;20020;-63
2023/06/21 07:16:07;;;;;;;12.23;6.43;;;;;;;;;;6369808;22;20018;-63
2023/06/21 07:18:35;;;;;;;9.02;5.68;;;;;;;;;;6369869;22;20044;-63
2023/06/21 07:21:03;;;;;;;9.52;6.20;;;;;;;;;;6369872;22;20022;-62
2023/06/21 07:23:30;;;;;;;7.45;6.20;;;;;;;;;;6369728;22;20314;-63
2023/06/21 07:25:58;;;;;;;7.85;7.05;;;;;;;;;;6369935;22;20093;-63
2023/06/21 07:28:26;;;;;;;8.95;6.13;;;;;;;;;;6370212;22;20022;-63
2023/06/21 07:30:53;;;;;;;8.85;5.38;;;;;;;;;;6370068;22;20014;-63
2023/06/21 07:33:21;;;;;;;7.45;5.90;;;;;;;;;;6369937;22;20072;-63
2023/06/21 07:35:49;;;;;;;8.13;6.05;;;;;;;;;;6342268;22;20022;-63
2023/06/21 07:38:16;;;;;;;7.35;6.18;;;;;;;;;;6369879;22;20068;-63
2023/06/21 07:40:46;;;;;;;6.45;5.70;;;;;;;;;;6369483;22;20032;-63
2023/06/21 07:43:14;;;;;;;9.25;6.18;;;;;;;;;;6369667;22;20455;-63
2023/06/21 07:45:41;;;;;;;7.50;5.78;;;;;;;;;;6369590;22;20018;-62
2023/06/21 07:48:09;;;;;;;10.15;6.40;;;;;;;;;;6369667;22;20021;-62
2023/06/21 07:50:36;;;;;;;7.45;5.95;;;;;;;;;;6371816;22;20018;-63
2023/06/21 07:53:04;;;;;;;7.40;6.13;;;;;;;;;;6371599;22;20018;-62
2023/06/21 07:55:32;;;;;;;10.30;6.55;;;;;;;;;;6371938;22;20101;-62
2023/06/21 07:57:59;;;;;;;7.97;6.57;;;;;;;;;;6371813;22;20025;-63
2023/06/21 08:00:27;;;;;;;7.53;5.43;;;;;;;;;;6344704;22;20382;-62
2023/06/21 08:02:54;;;;;;;10.23;5.40;;;;;;;;;;6371645;22;20014;-62
2023/06/21 08:05:22;;;;;;;7.32;5.20;;;;;;;;;;6371546;22;20021;-63
2023/06/21 08:07:49;;;;;;;7.15;5.50;;;;;;;;;;6371579;22;20456;-63
2023/06/21 08:10:17;;;;;;;7.50;5.43;;;;;;;;;;6371558;22;20014;-63
2023/06/21 08:12:44;;;;;;;7.40;4.80;;;;;;;;;;6371806;22;20018;-62
2023/06/21 08:15:12;;;;;;;7.93;4.65;;;;;;;;;;6371570;22;20014;-61
2023/06/21 08:17:39;;;;;;;7.35;4.50;;;;;;;;;;6371464;22;20022;-61
2023/06/21 08:20:07;;;;;;;4.85;4.35;;;;;;;;;;6371521;22;20440;-62
2023/06/21 08:22:34;;;;;;;6.00;4.50;;;;;;;;;;6371589;22;20090;-62
2023/06/21 08:25:02;;;;;;;5.47;4.10;;;;;;;;;;6371416;22;20025;-62
2023/06/21 08:27:29;;;;;;;7.65;5.93;;;;;;;;;;6371399;22;20436;-62
2023/06/21 08:29:57;;;;;;;7.15;4.85;;;;;;;;;;6343935;22;20313;-62
2023/06/21 08:32:24;;;;;;;6.97;4.25;;;;;;;;;;6343536;22;20022;-62
2023/06/21 08:34:55;;;;;;;5.60;3.92;;;;;;;;;;6371393;22;20022;-62
2023/06/21 08:37:25;;;;;;;5.70;4.22;;;;;;;;;;6371449;22;20014;-62
2023/06/21 08:39:53;;;;;;;7.68;4.47;;;;;;;;;;6371387;22;20344;-62
2023/06/21 08:42:23;;;;;;;5.55;4.70;;;;;;;;;;6371415;22;20018;-62
2023/06/21 08:44:52;;;;;;;4.53;4.13;;;;;;;;;;6371182;22;20435;-62
2023/06/21 08:47:22;;;;;;;5.18;4.68;;;;;;;;;;6371200;22;20094;-62
2023/06/21 08:49:50;;;;;;;8.25;4.60;;;;;;;;;;6344113;22;20624;-63
2023/06/21 08:52:22;;;;;;;5.00;4.50;;;;;;;;;;6371239;22;20049;-61
2023/06/21 08:54:57;;;;;;;6.28;4.70;;;;;;;;;;6371307;22;20018;-62
2023/06/21 08:57:25;;;;;;;6.70;4.82;;;;;;;;;;6371622;22;20357;-62
2023/06/21 09:00:01;;;;;;;6.63;4.43;;;;;;;;;;6370923;22;20089;-62
2023/06/21 09:02:31;;;;;;;5.30;4.80;;;;;;;;;;6358338;22;20463;-62
2023/06/21 09:05:03;;;;;;;6.25;4.72;;;;;;;;;;6371283;22;20093;-62
2023/06/21 09:07:31;;;;;;;7.22;5.18;;;;;;;;;;6371089;22;20029;-61
2023/06/21 09:10:00;;;;;;;5.35;4.82;;;;;;;;;;6370810;22;20018;-62
2023/06/21 09:12:29;;;;;;;7.70;4.85;;;;;;;;;;6370685;22;20326;-61
2023/06/21 09:14:57;;;;;;;6.07;4.90;;;;;;;;;;6371351;22;20387;-62
2023/06/21 09:17:25;;;;;;;10.18;5.45;;;;;;;;;;6370700;22;20055;-62
2023/06/21 09:19:53;;;;;;;7.63;4.65;;;;;;;;;;6370809;22;20022;-63
2023/06/21 09:22:24;;;;;;;6.88;4.60;;;;;;;;;;6370972;22;20358;-62
2023/06/21 09:24:52;;;;;;;6.72;5.20;;;;;;;;;;6371083;22;20367;-62
2023/06/21 09:27:20;;;;;;;7.30;5.22;;;;;;;;;;6371058;22;20018;-63
2023/06/21 09:29:47;;;;;;;9.35;5.45;;;;;;;;;;6370750;22;20032;-62
2023/06/21 09:32:15;;;;;;;5.78;5.18;;;;;;;;;;6370812;22;20436;-62
2023/06/21 09:34:43;;;;;;;7.30;4.90;;;;;;;;;;6342905;22;20014;-62
2023/06/21 09:37:10;;;;;;;7.07;5.20;;;;;;;;;;6370368;22;20024;-62
2023/06/21 09:39:38;;;;;;;7.90;5.53;;;;;;;;;;6342953;22;20022;-62
2023/06/21 09:42:06;;;;;;;7.63;5.47;;;;;;;;;;6370668;22;20010;-62
2023/06/21 09:44:35;;;;;;;5.65;4.78;;;;;;;;;;6370756;22;20014;-63
2023/06/21 09:47:04;;;;;;;7.82;5.30;;;;;;;;;;6370761;22;20017;-63
2023/06/21 09:49:32;;;;;;;6.10;5.20;;;;;;;;;;6370876;22;20329;-62
2023/06/21 09:51:59;;;;;;;7.35;5.10;;;;;;;;;;6370650;22;20022;-62
2023/06/21 09:54:31;;;;;;;8.23;5.70;;;;;;;;;;6370551;22;20018;-62
2023/06/21 09:57:00;;;;;;;10.95;7.45;;;;;;;;;;6370700;22;20025;-62
2023/06/21 09:59:27;;;;;;;7.93;4.57;;;;;;;;;;6343256;22;20059;-62
2023/06/21 10:01:55;;;;;;;7.05;5.43;;;;;;;;;;6370467;22;20450;-61
2023/06/21 10:04:23;;;;;;;7.47;5.55;;;;;;;;;;6370458;22;20058;-62
2023/06/21 10:06:54;;;;;;;10.57;5.35;;;;;;;;;;6370563;22;20010;-62
2023/06/21 10:09:22;;;;;;;6.78;5.60;;;;;;;;;;6370529;22;20057;-63
2023/06/21 10:11:50;;;;;;;6.30;4.82;;;;;;;;;;6369943;22;20337;-62
2023/06/21 10:14:18;;;;;;;7.22;5.30;;;;;;;;;;6370439;22;20038;-62
2023/06/21 10:16:50;;;;;;;6.85;5.47;;;;;;;;;;6370427;22;20038;-62
2023/06/21 10:19:21;;;;;;;6.95;5.55;;;;;;;;;;6370392;22;20037;-63
2023/06/21 10:22:07;;;;;;;7.43;6.10;;;;;;;;;;6370251;22;20059;-63
2023/06/21 10:24:47;;;;;;;8.00;6.00;;;;;;;;;;6370408;22;20014;-62
2023/06/21 10:27:16;;;;;;;8.35;5.30;;;;;;;;;;6370441;22;20010;-63
2023/06/21 10:29:44;;;;;;;7.63;5.60;;;;;;;;;;6343025;22;20448;-62
2023/06/21 10:32:12;;;;;;;6.18;5.57;;;;;;;;;;6370280;22;20014;-62
2023/06/21 10:34:40;;;;;;;5.93;5.10;;;;;;;;;;6370250;22;20063;-62
2023/06/21 10:37:14;;;;;;;9.65;5.78;;;;;;;;;;6369589;22;20063;-62
2023/06/21 10:39:41;;;;;;;;;;;;;;;;;;6370758;22;20047;-63
2023/06/21 10:42:10;;;;;;;8.20;5.03;;;;;;;;;;6370433;22;19936;-64
2023/06/21 10:44:41;;;;;;;6.28;5.18;;;;;;;;;;6370124;22;20018;-62
2023/06/21 10:47:08;;;;;;;6.28;5.57;;;;;;;;;;6370117;22;20441;-62
2023/06/21 10:49:36;;;;;;;5.88;4.70;;;;;;;;;;6370003;22;20014;-63
2023/06/21 10:52:05;;;;;;;10.43;5.30;;;;;;;;;;6342416;22;20022;-61
2023/06/21 10:54:33;;;;;;;17.27;5.95;;;;;;;;;;6370143;22;20015;-62
2023/06/21 10:57:00;;;;;;;13.77;6.20;;;;;;;;;;6370052;22;20014;-61
2023/06/21 10:59:28;;;;;;;10.18;5.07;;;;;;;;;;6357151;22;20010;-62
2023/06/21 11:01:55;;;;;;;8.18;5.20;;;;;;;;;;6369586;22;20022;-62
2023/06/21 11:04:23;;;;;;;14.82;6.93;;;;;;;;;;6369492;22;20018;-62
2023/06/21 11:06:58;;;;;;;7.63;6.82;;;;;;;;;;6369900;22;20443;-62
2023/06/21 11:09:26;;;;;;;10.55;5.20;;;;;;;;;;6356948;22;20018;-62
2023/06/21 11:11:54;;;;;;;6.53;5.13;;;;;;;;;;6342078;22;20093;-63
2023/06/21 11:14:22;;;;;;;7.72;6.22;;;;;;;;;;6370113;22;20018;-63
2023/06/21 11:17:04;;;;;;;7.47;5.38;;;;;;;;;;6369942;22;20015;-63
2023/06/21 11:19:32;;;;;;;9.70;6.85;;;;;;;;;;6369873;22;20018;-63
2023/06/21 11:22:13;;;;;;;6.30;5.25;;;;;;;;;;6369416;22;20010;-63
2023/06/21 11:24:49;;;;;;;9.48;4.60;;;;;;;;;;6369713;22;20026;-62
2023/06/21 11:27:17;;;;;;;8.85;4.80;;;;;;;;;;6370479;22;20010;-62
2023/06/21 11:29:55;;;;;;;6.38;5.20;;;;;;;;;;6369803;22;20440;-62
2023/06/21 11:32:23;;;;;;;8.70;5.45;;;;;;;;;;6369789;22;20378;-62
2023/06/21 11:34:56;;;;;;;8.77;5.28;;;;;;;;;;6369998;22;20313;-62
2023/06/21 11:37:31;;;;;;;10.40;5.70;;;;;;;;;;6369858;22;20021;-63
2023/06/21 11:40:08;;;;;;;7.85;4.78;;;;;;;;;;6369822;22;20014;-63
2023/06/21 11:42:37;;;;;;;8.63;4.88;;;;;;;;;;6369507;22;20059;-63
2023/06/21 11:45:17;;;;;;;6.35;5.18;;;;;;;;;;6369407;22;20386;-63
2023/06/21 11:48:03;;;;;;;6.28;5.32;;;;;;;;;;6342231;22;20077;-63
2023/06/21 11:50:38;;;;;;;6.32;4.75;;;;;;;;;;6342231;22;20019;-63
2023/06/21 11:53:20;;;;;;;6.28;5.68;;;;;;;;;;6369631;22;20022;-63
2023/06/21 11:55:50;;;;;;;5.20;4.70;;;;;;;;;;6369795;22;20085;-61
2023/06/21 11:58:17;;;;;;;6.53;4.93;;;;;;;;;;6369664;22;20017;-62
2023/06/21 12:00:46;;;;;;;7.25;5.18;;;;;;;;;;6369525;22;20036;-62
2023/06/21 12:03:14;;;;;;;7.05;4.90;;;;;;;;;;6368838;22;20019;-63
2023/06/21 12:05:50;;;;;;;6.40;4.60;;;;;;;;;;6369832;22;20034;-62
2023/06/21 12:08:18;;;;;;;6.40;4.82;;;;;;;;;;6369685;22;20026;-62
2023/06/21 12:10:46;;;;;;;7.35;5.50;;;;;;;;;;6369484;22;20014;-62
2023/06/21 12:13:15;;;;;;;7.07;5.30;;;;;;;;;;6369532;22;20014;-62
2023/06/21 12:15:53;;;;;;;6.78;5.00;;;;;;;;;;6369535;22;20466;-62
2023/06/21 12:18:21;;;;;;;5.88;5.20;;;;;;;;;;6369533;22;20038;-62
2023/06/21 12:20:49;;;;;;;8.95;4.90;;;;;;;;;;6369608;22;20376;-63
2023/06/21 12:23:21;;;;;;;8.10;5.15;;;;;;;;;;6369256;22;20022;-62
2023/06/21 12:25:49;;;;;;;9.32;8.13;;;;;;;;;;6369665;22;20014;-63
2023/06/21 12:28:18;;;;;;;5.68;4.88;;;;;;;;;;6369404;22;20075;-62
2023/06/21 12:30:49;;;;;;;7.35;5.00;;;;;;;;;;6342190;22;20463;-63
2023/06/21 12:33:17;;;;;;;5.65;4.85;;;;;;;;;;6369973;22;20432;-63
2023/06/21 12:35:44;;;;;;;9.93;7.10;;;;;;;;;;6370508;22;20022;-63
2023/06/21 12:38:13;;;;;;;7.45;5.30;;;;;;;;;;6370758;22;20020;-63
2023/06/21 12:41:00;;;;;;;8.68;6.25;;;;;;;;;;6370140;22;20018;-63
2023/06/21 12:43:37;;;;;;;5.70;5.10;;;;;;;;;;6370874;22;20014;-63
2023/06/21 12:46:06;;;;;;;10.05;8.90;;;;;;;;;;6371308;22;20021;-61
2023/06/21 12:48:34;;;;;;;7.88;6.65;;;;;;;;;;6371624;22;20017;-61
2023/06/21 12:51:02;;;;;;;18.60;6.72;;;;;;;;;;6371119;22;20470;-62
2023/06/21 12:53:30;;;;;;;7.55;5.15;;;;;;;;;;6370926;22;20436;-62
2023/06/21 12:56:08;;;;;;;8.32;5.40;;;;;;;;;;6370976;22;20024;-63
2023/06/21 12:58:36;;;;;;;10.05;6.88;;;;;;;;;;6371000;22;20090;-62
2023/06/21 13:01:04;;;;;;;6.68;5.30;;;;;;;;;;6369179;22;20025;-62
2023/06/21 13:03:32;;;;;;;12.00;9.18;;;;;;;;;;6369425;22;20026;-62
2023/06/21 13:06:00;;;;;;;6.80;5.47;;;;;;;;;;6342303;22;20018;-63
2023/06/21 13:08:28;;;;;;;9.40;7.00;;;;;;;;;;6370768;22;20015;-64
2023/06/21 13:10:57;;;;;;;8.13;7.05;;;;;;;;;;6370857;22;20313;-62
2023/06/21 13:13:25;;;;;;;6.72;5.60;;;;;;;;;;6371535;22;20052;-64
2023/06/21 13:15:53;;;;;;;11.23;6.03;;;;;;;;;;6371460;22;20022;-65
2023/06/21 13:18:22;;;;;;;12.13;7.43;;;;;;;;;;6371735;22;20014;-65
2023/06/21 13:20:52;;;;;;;6.55;5.53;;;;;;;;;;6371573;22;20015;-65
2023/06/21 13:23:19;;;;;;;10.48;8.15;;;;;;;;;;6370833;22;20097;-65
2023/06/21 13:25:50;;;;;;;7.53;5.32;;;;;;;;;;6371755;22;20018;-64
2023/06/21 13:28:17;;;;;;;7.25;5.20;;;;;;;;;;6371982;22;20085;-65
2023/06/21 13:30:45;;;;;;;8.75;5.15;;;;;;;;;;6371927;22;20021;-64
2023/06/21 13:33:13;;;;;;;6.45;5.30;;;;;;;;;;6371275;22;20091;-66
2023/06/21 13:35:43;;;;;;;5.63;5.05;;;;;;;;;;6371504;22;20018;-72
2023/06/21 13:38:13;;;;;;;8.60;5.93;;;;;;;;;;6371876;22;20096;-72
2023/06/21 13:40:41;;;;;;;7.88;5.88;;;;;;;;;;6372032;22;20428;-72
2023/06/21 13:43:09;;;;;;;10.27;8.60;;;;;;;;;;6371714;22;20022;-70
2023/06/21 13:45:37;;;;;;;6.70;5.25;;;;;;;;;;6371939;22;20079;-70
2023/06/21 13:48:05;;;;;;;8.02;5.32;;;;;;;;;;6372092;22;20018;-72
2023/06/21 13:50:33;;;;;;;7.63;5.60;;;;;;;;;;6372011;22;20071;-71
2023/06/21 13:53:00;;;;;;;5.85;4.90;;;;;;;;;;6372126;22;20021;-72
2023/06/21 13:55:28;;;;;;;7.93;5.40;;;;;;;;;;6371239;22;20022;-73
2023/06/21 13:57:56;;;;;;;10.27;5.90;;;;;;;;;;6371418;22;20021;-72
2023/06/21 14:00:23;;;;;;;7.45;4.90;;;;;;;;;;6371934;22;20377;-73
2023/06/21 14:02:51;;;;;;;10.20;8.15;;;;;;;;;;6370474;22;20030;-71
2023/06/21 14:05:21;;;;;;;11.52;6.82;;;;;;;;;;6342825;22;20022;-73
2023/06/21 14:07:50;;;;;;;7.38;5.93;;;;;;;;;;6369843;22;20014;-71
2023/06/21 14:10:18;;;;;;;7.50;5.60;;;;;;;;;;6371046;22;20058;-71
2023/06/21 14:12:47;;;;;;;7.03;5.63;;;;;;;;;;6371765;22;20006;-71
2023/06/21 14:15:14;;;;;;;6.55;4.97;;;;;;;;;;6371609;22;20042;-72
2023/06/21 14:17:42;;;;;;;7.70;6.20;;;;;;;;;;6370205;22;20500;-72
2023/06/21 14:20:10;;;;;;;8.05;5.38;;;;;;;;;;6370580;22;20059;-73
2023/06/21 14:22:38;;;;;;;8.02;5.55;;;;;;;;;;6371580;22;20115;-71
2023/06/21 14:25:08;;;;;;;5.97;5.15;;;;;;;;;;6371140;22;20021;-71
2023/06/21 14:27:36;;;;;;;7.90;5.85;;;;;;;;;;6369941;22;20022;-71
2023/06/21 14:30:04;;;;;;;6.50;5.50;;;;;;;;;;6370198;22;20018;-70
2023/06/21 14:32:37;;;;;;;7.15;5.95;;;;;;;;;;6370307;22;20021;-73
2023/06/21 14:35:05;;;;;;;10.27;6.82;;;;;;;;;;6370201;22;20010;-73
2023/06/21 14:37:33;;;;;;;9.57;6.18;;;;;;;;;;6371489;22;20011;-74
2023/06/21 14:40:03;;;;;;;7.72;6.10;;;;;;;;;;6343613;22;20404;-75
2023/06/21 14:42:34;;;;;;;5.90;5.30;;;;;;;;;;6344695;22;20041;-73
2023/06/21 14:45:01;;;;;;;7.68;6.88;;;;;;;;;;6342822;22;20026;-74